createdAt,value
2022-10-22T00:00:02.991Z,85.95
2022-10-22T00:02:31.912Z,86.03
2022-10-22T00:04:59.801Z,86.05
2022-10-22T00:07:26.968Z,86.49
2022-10-22T00:09:53.827Z,84.57
2022-10-22T00:12:21.765Z,85.73
2022-10-22T00:14:49.494Z,86.28
2022-10-22T00:17:16.826Z,86.46
2022-10-22T00:19:45.039Z,85.68
2022-10-22T00:22:12.522Z,86.38
2022-10-22T00:24:39.946Z,85.35
2022-10-22T00:27:10.038Z,85.24
2022-10-22T00:29:37.136Z,85.23
2022-10-22T00:32:06.249Z,85.69
2022-10-22T00:34:33.674Z,86.02
2022-10-22T00:37:00.908Z,85.82
2022-10-22T00:39:28.895Z,85.83
2022-10-22T00:41:58.330Z,87.79
2022-10-22T00:45:02.825Z,86.48
2022-10-22T00:47:38.165Z,85.19
2022-10-22T00:50:12.074Z,85.93
2022-10-22T00:52:40.494Z,85.57
2022-10-22T00:55:08.548Z,85.54
2022-10-22T00:57:36.898Z,86.47
2022-10-22T01:00:05.693Z,85.82
2022-10-22T01:02:33.191Z,85.05
2022-10-22T01:05:00.056Z,85.16
2022-10-22T01:07:27.486Z,85.11
2022-10-22T01:10:09.338Z,85.45
2022-10-22T01:12:55.572Z,86.75
2022-10-22T01:15:26.015Z,85.92
2022-10-22T01:18:18.971Z,86.40
2022-10-22T01:21:41.173Z,86.89
2022-10-22T01:24:42.229Z,88.07
2022-10-22T01:27:24.085Z,87.89
2022-10-22T01:30:03.374Z,88.63
2022-10-22T01:32:40.033Z,87.88
2022-10-22T01:35:11.000Z,88.61
2022-10-22T01:37:53.473Z,88.31
2022-10-22T01:40:23.251Z,88.42
2022-10-22T01:43:01.233Z,87.09
2022-10-22T01:45:51.041Z,88.28
2022-10-22T01:48:43.655Z,87.59
2022-10-22T01:52:00.379Z,87.51
2022-10-22T01:55:00.766Z,87.86
2022-10-22T01:57:45.228Z,88.31
2022-10-22T02:00:15.357Z,88.38
2022-10-22T02:05:24.798Z,89.21
2022-10-22T02:08:17.685Z,89.54
2022-10-22T02:10:47.576Z,88.45
2022-10-22T02:13:21.822Z,88.89
2022-10-22T02:15:51.814Z,88.33
2022-10-22T02:18:22.291Z,88.69
2022-10-22T02:20:51.581Z,90.11
2022-10-22T02:23:19.132Z,89.91
2022-10-22T02:25:51.670Z,89.94
2022-10-22T02:28:27.604Z,90.81
2022-10-22T02:30:59.690Z,90.82
2022-10-22T02:33:40.422Z,89.90
2022-10-22T02:36:09.094Z,90.94
2022-10-22T02:38:37.196Z,89.32
2022-10-22T02:41:05.736Z,90.32
2022-10-22T02:43:40.778Z,90.21
2022-10-22T02:46:09.370Z,89.01
2022-10-22T02:48:36.613Z,87.42
2022-10-22T02:51:04.138Z,89.21
2022-10-22T02:53:32.076Z,89.94
2022-10-22T02:55:59.844Z,88.99
2022-10-22T02:58:26.743Z,89.29
2022-10-22T03:00:54.601Z,87.74
2022-10-22T03:03:22.100Z,86.76
2022-10-22T03:05:50.988Z,87.32
2022-10-22T03:08:18.796Z,89.16
2022-10-22T03:10:45.952Z,89.00
2022-10-22T03:13:12.946Z,88.67
2022-10-22T03:15:40.458Z,89.42
2022-10-22T03:18:07.382Z,87.75
2022-10-22T03:20:34.591Z,90.21
2022-10-22T03:23:03.325Z,90.34
2022-10-22T03:25:34.573Z,88.87
2022-10-22T03:28:05.649Z,88.24
2022-10-22T03:30:32.937Z,90.09
2022-10-22T03:32:59.788Z,87.44
2022-10-22T03:35:27.426Z,87.95
2022-10-22T03:37:54.867Z,87.96
2022-10-22T03:40:22.250Z,88.21
2022-10-22T03:42:49.837Z,88.51
2022-10-22T03:45:16.991Z,87.96
2022-10-22T03:47:43.907Z,89.97
2022-10-22T03:50:11.839Z,89.75
2022-10-22T03:52:40.078Z,90.27
2022-10-22T03:55:08.471Z,89.75
2022-10-22T03:57:35.983Z,88.32
2022-10-22T04:00:05.854Z,89.26
2022-10-22T04:02:32.735Z,90.78
2022-10-22T04:05:00.752Z,89.41
2022-10-22T04:07:27.716Z,89.80
2022-10-22T04:09:54.829Z,90.02
2022-10-22T04:12:21.968Z,89.25
2022-10-22T04:14:49.062Z,89.33
2022-10-22T04:17:16.057Z,87.89
2022-10-22T04:19:43.788Z,87.35
2022-10-22T04:22:10.703Z,87.95
2022-10-22T04:24:38.341Z,87.45
2022-10-22T04:27:05.493Z,86.64
2022-10-22T04:29:32.641Z,86.63
2022-10-22T04:31:59.648Z,85.88
2022-10-22T04:34:30.041Z,85.16
2022-10-22T04:36:57.251Z,85.42
2022-10-22T04:39:24.218Z,85.48
2022-10-22T04:41:51.823Z,86.14
2022-10-22T04:44:18.655Z,87.66
2022-10-22T04:46:46.124Z,88.32
2022-10-22T04:49:13.329Z,89.68
2022-10-22T04:51:40.518Z,90.27
2022-10-22T04:54:07.467Z,90.43
2022-10-22T04:56:34.917Z,90.75
2022-10-22T04:59:06.911Z,91.21
2022-10-22T05:01:42.728Z,91.35
2022-10-22T05:04:16.564Z,92.11
2022-10-22T05:06:44.540Z,92.64
2022-10-22T05:09:14.338Z,94.00
2022-10-22T05:11:46.524Z,95.99
2022-10-22T05:14:14.162Z,96.14
2022-10-22T05:16:41.089Z,95.49
2022-10-22T05:19:09.103Z,95.80
2022-10-22T05:21:37.797Z,96.16
2022-10-22T05:24:05.333Z,96.22
2022-10-22T05:26:32.559Z,96.34
2022-10-22T05:28:59.851Z,96.79
2022-10-22T05:31:28.880Z,96.54
2022-10-22T05:33:56.392Z,95.77
2022-10-22T05:36:23.446Z,95.47
2022-10-22T05:38:51.377Z,94.85
2022-10-22T05:41:23.629Z,94.75
2022-10-22T05:43:51.493Z,94.15
2022-10-22T05:46:22.881Z,93.87
2022-10-22T05:48:58.246Z,93.83
2022-10-22T05:51:26.752Z,93.38
2022-10-22T05:54:01.884Z,93.36
2022-10-22T05:56:30.679Z,92.26
2022-10-22T05:58:57.940Z,92.02
2022-10-22T06:01:30.898Z,91.02
2022-10-22T06:04:00.513Z,90.28
2022-10-22T06:06:38.369Z,89.69
2022-10-22T06:09:17.143Z,88.82
2022-10-22T06:11:45.133Z,89.15
2022-10-22T06:14:12.714Z,88.68
2022-10-22T06:16:39.892Z,88.32
2022-10-22T06:19:06.963Z,87.85
2022-10-22T06:21:34.081Z,87.65
2022-10-22T06:24:02.410Z,87.37
2022-10-22T06:26:29.516Z,86.18
2022-10-22T06:28:57.206Z,86.04
2022-10-22T06:31:26.092Z,85.33
2022-10-22T06:33:53.223Z,85.24
2022-10-22T06:36:22.972Z,84.78
2022-10-22T06:38:54.652Z,84.71
2022-10-22T06:41:24.348Z,84.49
2022-10-22T06:43:54.286Z,83.30
2022-10-22T06:46:22.149Z,83.25
2022-10-22T06:48:57.255Z,82.06
2022-10-22T06:51:25.053Z,81.86
2022-10-22T06:53:52.047Z,81.41
2022-10-22T06:56:21.108Z,80.70
2022-10-22T06:58:52.448Z,80.55
2022-10-22T07:01:21.916Z,79.68
2022-10-22T07:03:51.422Z,79.43
2022-10-22T07:06:20.060Z,78.52
2022-10-22T07:08:47.149Z,77.96
2022-10-22T07:11:15.326Z,77.50
2022-10-22T07:13:43.103Z,77.58
2022-10-22T07:16:11.210Z,77.04
2022-10-22T07:18:39.289Z,77.89
2022-10-22T07:21:07.657Z,78.32
2022-10-22T07:23:34.806Z,76.92
2022-10-22T07:26:07.316Z,76.15
2022-10-22T07:28:40.000Z,77.09
2022-10-22T07:31:09.980Z,77.19
2022-10-22T07:33:37.777Z,77.13
2022-10-22T07:36:08.358Z,76.01
2022-10-22T07:38:36.242Z,75.71
2022-10-22T07:41:03.825Z,75.49
2022-10-22T07:43:30.804Z,74.04
2022-10-22T07:45:57.783Z,75.00
2022-10-22T07:48:24.733Z,74.96
2022-10-22T07:50:52.095Z,74.30
2022-10-22T07:53:19.957Z,74.10
2022-10-22T07:55:51.302Z,73.79
2022-10-22T07:58:19.661Z,74.45
2022-10-22T08:00:47.151Z,73.80
2022-10-22T08:03:15.647Z,74.28
2022-10-22T08:05:45.763Z,73.36
2022-10-22T08:08:14.356Z,72.12
2022-10-22T08:10:41.533Z,72.25
2022-10-22T08:13:08.878Z,71.84
2022-10-22T08:15:36.259Z,72.25
2022-10-22T08:18:03.451Z,71.67
2022-10-22T08:20:30.618Z,72.54
2022-10-22T08:22:58.179Z,72.28
2022-10-22T08:25:25.291Z,71.13
2022-10-22T08:27:52.411Z,71.99
2022-10-22T08:30:20.134Z,71.71
2022-10-22T08:32:49.305Z,70.10
2022-10-22T08:35:18.617Z,70.01
2022-10-22T08:37:45.538Z,69.06
2022-10-22T08:40:23.363Z,69.06
2022-10-22T08:43:12.148Z,68.88
2022-10-22T08:45:39.929Z,69.09
2022-10-22T08:48:53.307Z,69.86
2022-10-22T08:51:26.525Z,70.75
2022-10-22T08:54:07.292Z,70.45
2022-10-22T08:56:38.310Z,68.57
2022-10-22T08:59:20.354Z,69.12
2022-10-22T09:01:49.612Z,69.81
2022-10-22T09:04:26.423Z,69.10
2022-10-22T09:06:55.374Z,69.10
2022-10-22T09:09:24.201Z,67.56
2022-10-22T09:11:53.446Z,66.89
2022-10-22T09:14:23.729Z,66.72
2022-10-22T09:17:09.951Z,67.33
2022-10-22T09:20:02.873Z,66.85
2022-10-22T09:22:44.610Z,68.98
2022-10-22T09:25:21.381Z,68.82
2022-10-22T09:27:50.206Z,67.30
2022-10-22T09:30:22.291Z,68.09
2022-10-22T09:33:15.169Z,69.14
2022-10-22T09:36:12.596Z,69.51
2022-10-22T09:38:45.617Z,67.39
2022-10-22T09:41:13.236Z,66.09
2022-10-22T09:43:40.143Z,65.72
2022-10-22T09:46:15.403Z,66.71
2022-10-22T09:48:47.088Z,67.91
2022-10-22T09:51:36.118Z,67.19
2022-10-22T09:54:15.678Z,67.15
2022-10-22T09:56:46.862Z,66.75
2022-10-22T09:59:18.681Z,66.01
2022-10-22T10:01:45.764Z,66.25
2022-10-22T10:04:16.119Z,64.63
2022-10-22T10:06:44.971Z,65.08
2022-10-22T10:09:21.135Z,62.00
2022-10-22T10:11:51.364Z,64.60
2022-10-22T10:14:37.615Z,62.76
2022-10-22T10:17:28.224Z,62.02
2022-10-22T10:20:16.526Z,62.97
2022-10-22T10:23:08.680Z,63.25
2022-10-22T10:25:50.887Z,62.57
2022-10-22T10:28:27.942Z,62.52
2022-10-22T10:31:00.054Z,63.00
2022-10-22T10:34:04.683Z,63.51
2022-10-22T10:36:37.577Z,62.22
2022-10-22T10:39:28.824Z,61.67
2022-10-22T10:42:14.753Z,61.15
2022-10-22T10:45:09.592Z,62.54
2022-10-22T10:47:59.427Z,60.44
2022-10-22T10:50:54.469Z,60.77
2022-10-22T10:53:40.108Z,59.44
2022-10-22T10:56:33.447Z,58.73
2022-10-22T10:59:11.560Z,58.52
2022-10-22T11:02:00.855Z,58.54
2022-10-22T11:04:56.110Z,56.38
2022-10-22T11:07:34.701Z,57.69
2022-10-22T11:10:40.217Z,55.67
2022-10-22T11:13:14.674Z,53.70
2022-10-22T11:15:46.332Z,54.66
2022-10-22T11:18:24.316Z,53.89
2022-10-22T11:21:01.667Z,53.88
2022-10-22T11:23:44.972Z,53.70
2022-10-22T11:26:22.397Z,52.95
2022-10-22T11:28:53.897Z,51.40
2022-10-22T11:31:25.446Z,51.77
2022-10-22T11:34:32.699Z,47.42
2022-10-22T11:37:01.350Z,47.76
2022-10-22T11:39:43.665Z,51.76
2022-10-22T11:42:18.378Z,50.91
2022-10-22T11:45:01.928Z,44.34
2022-10-22T11:47:53.957Z,49.04
2022-10-22T11:50:25.622Z,49.03
2022-10-22T11:53:02.864Z,47.31
2022-10-22T11:55:48.801Z,48.28
2022-10-22T11:58:34.493Z,44.87
2022-10-22T12:01:10.314Z,44.27
2022-10-22T12:03:41.356Z,45.51
2022-10-22T12:06:12.236Z,44.28
2022-10-22T12:08:54.550Z,43.33
2022-10-22T12:11:39.636Z,43.88
2022-10-22T12:14:30.523Z,41.45
2022-10-22T12:17:14.578Z,41.83
2022-10-22T12:19:58.496Z,39.84
2022-10-22T12:22:36.194Z,41.38
2022-10-22T12:25:17.301Z,40.47
2022-10-22T12:27:45.089Z,40.84
2022-10-22T12:30:20.076Z,42.07
2022-10-22T12:32:48.830Z,40.92
2022-10-22T12:35:22.189Z,40.30
2022-10-22T12:37:54.346Z,41.23
2022-10-22T12:40:23.730Z,39.85
2022-10-22T12:43:15.419Z,36.64
2022-10-22T12:45:50.361Z,38.66
2022-10-22T12:48:40.143Z,39.10
2022-10-22T12:51:09.846Z,39.05
2022-10-22T12:53:43.391Z,39.22
2022-10-22T12:56:16.260Z,40.16
2022-10-22T12:58:47.102Z,38.65
2022-10-22T13:01:17.670Z,38.69
2022-10-22T13:03:50.448Z,38.29
2022-10-22T13:06:20.450Z,39.56
2022-10-22T13:09:03.973Z,35.97
2022-10-22T13:11:40.273Z,35.84
2022-10-22T13:14:29.923Z,35.97
2022-10-22T13:17:19.346Z,35.30
2022-10-22T13:19:52.703Z,36.89
2022-10-22T13:22:29.155Z,35.96
2022-10-22T13:24:59.020Z,36.73
2022-10-22T13:27:33.002Z,37.02
2022-10-22T13:30:09.579Z,35.57
2022-10-22T13:32:36.774Z,34.69
2022-10-22T13:35:04.553Z,34.29
2022-10-22T13:37:34.387Z,34.89
2022-10-22T13:40:01.519Z,33.99
2022-10-22T13:42:28.741Z,34.03
2022-10-22T13:44:55.701Z,34.96
2022-10-22T13:47:29.099Z,33.07
2022-10-22T13:50:00.137Z,35.03
2022-10-22T13:52:57.188Z,32.92
2022-10-22T13:55:26.913Z,34.96
2022-10-22T13:58:03.780Z,34.58
2022-10-22T14:00:31.376Z,34.19
2022-10-22T14:03:00.014Z,32.97
2022-10-22T14:05:27.454Z,33.54
2022-10-22T14:07:54.395Z,32.63
2022-10-22T14:10:24.020Z,32.32
2022-10-22T14:12:53.632Z,34.20
2022-10-22T14:15:24.116Z,34.56
2022-10-22T14:17:57.848Z,33.40
2022-10-22T14:20:28.486Z,33.30
2022-10-22T14:22:55.602Z,33.00
2022-10-22T14:25:26.796Z,32.45
2022-10-22T14:27:53.760Z,33.07
2022-10-22T14:30:27.174Z,33.05
2022-10-22T14:32:54.327Z,33.01
2022-10-22T14:35:22.887Z,33.03
2022-10-22T14:37:50.194Z,33.22
2022-10-22T14:40:20.125Z,33.47
2022-10-22T14:42:48.942Z,33.34
2022-10-22T14:45:22.398Z,33.18
2022-10-22T14:47:50.553Z,33.37
2022-10-22T14:50:19.010Z,33.48
2022-10-22T14:52:46.229Z,34.22
2022-10-22T14:55:15.353Z,34.42
2022-10-22T14:57:42.889Z,34.81
2022-10-22T15:00:13.585Z,35.00
2022-10-22T15:02:40.762Z,35.54
2022-10-22T15:05:08.427Z,35.88
2022-10-22T15:07:36.481Z,36.36
2022-10-22T15:10:04.917Z,37.09
2022-10-22T15:12:31.911Z,37.50
2022-10-22T15:14:58.815Z,37.75
2022-10-22T15:17:26.018Z,38.65
2022-10-22T15:19:53.419Z,39.24
2022-10-22T15:22:20.476Z,39.76
2022-10-22T15:24:48.642Z,40.28
2022-10-22T15:27:15.959Z,41.00
2022-10-22T15:29:42.981Z,41.57
2022-10-22T15:32:10.587Z,42.38
2022-10-22T15:34:39.172Z,43.06
2022-10-22T15:37:09.762Z,43.98
2022-10-22T15:39:40.354Z,44.44
2022-10-22T15:42:08.043Z,45.02
2022-10-22T15:44:35.249Z,45.63
2022-10-22T15:47:07.261Z,46.42
2022-10-22T15:49:37.026Z,47.10
2022-10-22T15:52:05.198Z,47.56
2022-10-22T15:54:32.997Z,48.14
2022-10-22T15:57:03.664Z,49.23
2022-10-22T15:59:30.834Z,49.80
2022-10-22T16:01:57.990Z,50.01
2022-10-22T16:04:24.965Z,50.57
2022-10-22T16:06:53.681Z,50.89
2022-10-22T16:09:23.359Z,51.07
2022-10-22T16:11:51.108Z,51.44
2022-10-22T16:14:20.614Z,52.12
2022-10-22T16:16:50.264Z,52.71
2022-10-22T16:19:18.893Z,53.32
2022-10-22T16:21:46.493Z,54.26
2022-10-22T16:24:13.494Z,54.78
2022-10-22T16:26:42.203Z,54.75
2022-10-22T16:40:30.995Z,55.85
2022-10-22T16:42:58.237Z,56.49
2022-10-22T16:45:25.193Z,57.00
2022-10-22T16:47:53.105Z,57.29
2022-10-22T16:50:20.054Z,57.90
2022-10-22T16:52:47.507Z,58.45
2022-10-22T16:55:14.680Z,58.83
2022-10-22T16:57:42.065Z,59.34
2022-10-22T17:00:10.082Z,59.89
2022-10-22T17:02:38.113Z,60.15
2022-10-22T17:05:05.618Z,59.85
2022-10-22T17:07:32.899Z,60.11
2022-10-22T17:10:01.910Z,60.44
2022-10-22T17:12:35.469Z,60.66
2022-10-22T17:15:05.360Z,61.05
2022-10-22T17:17:33.585Z,61.12
2022-10-22T17:20:01.001Z,61.38
2022-10-22T17:22:28.529Z,61.62
2022-10-22T17:25:16.723Z,62.30
2022-10-22T17:27:45.322Z,62.88
2022-10-22T17:30:22.014Z,63.34
2022-10-22T17:32:54.686Z,63.46
2022-10-22T17:35:22.037Z,64.38
2022-10-22T17:37:49.696Z,64.71
2022-10-22T17:40:17.305Z,64.87
2022-10-22T17:42:45.603Z,65.35
2022-10-22T17:45:12.657Z,65.25
2022-10-22T17:47:40.674Z,65.19
2022-10-22T17:50:08.456Z,65.84
2022-10-22T17:52:35.850Z,65.95
2022-10-22T17:55:03.922Z,66.30
2022-10-22T17:57:34.383Z,66.55
2022-10-22T18:00:03.805Z,66.53
2022-10-22T18:02:32.748Z,66.60
2022-10-22T18:04:59.656Z,67.26
2022-10-22T18:07:27.275Z,67.19
2022-10-22T18:09:54.376Z,66.78
2022-10-22T18:12:21.898Z,66.73
2022-10-22T18:14:50.303Z,67.01
2022-10-22T18:17:17.797Z,66.64
2022-10-22T18:19:44.734Z,66.72
2022-10-22T18:22:12.339Z,67.18
2022-10-22T18:24:40.334Z,66.23
2022-10-22T18:27:08.267Z,66.49
2022-10-22T18:29:35.201Z,66.57
2022-10-22T18:32:10.734Z,66.59
2022-10-22T18:34:40.388Z,66.54
2022-10-22T18:37:07.708Z,66.14
2022-10-22T18:39:35.131Z,66.40
2022-10-22T18:42:06.304Z,66.96
2022-10-22T18:44:35.328Z,67.77
2022-10-22T18:47:02.642Z,68.38
2022-10-22T18:49:30.402Z,69.00
2022-10-22T18:51:57.618Z,69.23
2022-10-22T18:54:25.008Z,69.33
2022-10-22T18:56:55.535Z,68.96
2022-10-22T18:59:26.647Z,69.55
2022-10-22T19:01:55.797Z,69.57
2022-10-22T19:04:23.545Z,69.69
2022-10-22T19:06:50.952Z,69.78
2022-10-22T19:09:18.627Z,70.77
2022-10-22T19:11:46.292Z,71.62
2022-10-22T19:14:15.633Z,71.49
2022-10-22T19:16:42.676Z,71.42
2022-10-22T19:19:11.431Z,71.45
2022-10-22T19:21:38.882Z,71.82
2022-10-22T19:24:07.096Z,71.85
2022-10-22T19:26:34.282Z,72.02
2022-10-22T19:29:03.391Z,71.68
2022-10-22T19:31:31.537Z,71.89
2022-10-22T19:34:02.217Z,71.74
2022-10-22T19:36:33.048Z,71.92
2022-10-22T19:39:00.902Z,72.05
2022-10-22T19:41:29.326Z,72.10
2022-10-22T19:43:58.258Z,72.29
2022-10-22T19:46:26.736Z,72.72
2022-10-22T19:48:56.583Z,73.12
2022-10-22T19:51:26.273Z,73.45
2022-10-22T19:54:05.812Z,73.48
2022-10-22T19:56:35.349Z,73.62
2022-10-22T19:59:04.160Z,74.18
2022-10-22T20:01:32.305Z,74.27
2022-10-22T20:04:00.684Z,74.58
2022-10-22T20:06:28.224Z,74.70
2022-10-22T20:08:56.297Z,74.98
2022-10-22T20:11:27.173Z,75.04
2022-10-22T20:13:54.726Z,76.16
2022-10-22T20:16:24.424Z,75.66
2022-10-22T20:18:52.961Z,76.08
2022-10-22T20:21:20.426Z,75.97
2022-10-22T20:23:51.329Z,76.24
2022-10-22T20:26:19.030Z,76.97
2022-10-22T20:28:45.955Z,77.11
2022-10-22T20:31:16.458Z,77.81
2022-10-22T20:33:43.697Z,77.67
2022-10-22T20:36:16.515Z,78.66
2022-10-22T20:38:43.680Z,79.88
2022-10-22T20:41:12.831Z,79.09
2022-10-22T20:43:39.952Z,79.42
2022-10-22T20:46:06.961Z,81.09
2022-10-22T20:48:33.921Z,80.43
2022-10-22T20:51:01.775Z,80.36
2022-10-22T20:53:28.843Z,80.92
2022-10-22T20:55:59.164Z,80.97
2022-10-22T20:58:27.794Z,80.65
2022-10-22T21:00:55.627Z,80.21
2022-10-22T21:03:23.054Z,79.86
2022-10-22T21:05:50.279Z,79.50
2022-10-22T21:08:17.848Z,79.54
2022-10-22T21:10:48.983Z,79.29
2022-10-22T21:13:17.017Z,79.68
2022-10-22T21:15:43.965Z,81.60
2022-10-22T21:18:11.158Z,82.26
2022-10-22T21:20:40.859Z,81.70
2022-10-22T21:23:08.364Z,82.57
2022-10-22T21:25:39.510Z,82.70
2022-10-22T21:28:09.066Z,82.32
2022-10-22T21:30:36.044Z,82.04
2022-10-22T21:33:02.985Z,82.57
2022-10-22T21:35:30.151Z,81.98
2022-10-22T21:37:57.058Z,82.27
2022-10-22T21:40:24.074Z,82.05
2022-10-22T21:42:51.262Z,82.50
2022-10-22T21:45:22.057Z,81.96
2022-10-22T21:47:49.488Z,83.28
2022-10-22T21:50:16.466Z,83.97
2022-10-22T21:52:43.472Z,83.57
2022-10-22T21:55:10.446Z,84.07
2022-10-22T21:57:37.379Z,84.23
2022-10-22T22:00:06.716Z,83.21
2022-10-22T22:02:33.919Z,84.44
2022-10-22T22:05:00.848Z,83.66
2022-10-22T22:07:27.895Z,83.62
2022-10-22T22:09:54.956Z,83.55
2022-10-22T22:12:21.877Z,83.53
2022-10-22T22:14:48.958Z,83.71
2022-10-22T22:17:16.687Z,83.23
2022-10-22T22:19:43.617Z,83.77
2022-10-22T22:22:10.565Z,83.60
2022-10-22T22:24:39.902Z,84.09
2022-10-22T22:27:07.283Z,83.96
2022-10-22T22:29:34.931Z,83.76
2022-10-22T22:32:02.054Z,84.73
2022-10-22T22:34:28.910Z,85.37
2022-10-22T22:36:55.920Z,85.68
2022-10-22T22:39:23.952Z,86.08
2022-10-22T22:41:51.243Z,85.37
2022-10-22T22:44:18.332Z,85.53
2022-10-22T22:46:45.339Z,85.05
2022-10-22T22:49:13.678Z,85.37
2022-10-22T22:51:40.609Z,85.47
2022-10-22T22:54:07.594Z,85.49
2022-10-22T22:56:35.167Z,84.86
2022-10-22T22:59:02.579Z,85.03
2022-10-22T23:01:35.658Z,85.12
2022-10-22T23:04:16.381Z,84.45
2022-10-22T23:06:43.516Z,84.08
2022-10-22T23:09:13.080Z,85.00
2022-10-22T23:11:41.556Z,84.88
2022-10-22T23:14:11.688Z,85.22
2022-10-22T23:16:42.455Z,85.68
2022-10-22T23:19:10.425Z,85.86
2022-10-22T23:21:40.000Z,87.03
2022-10-22T23:24:10.004Z,86.96
2022-10-22T23:26:40.210Z,87.05
2022-10-22T23:29:15.758Z,87.30
2022-10-22T23:31:43.923Z,87.03
2022-10-22T23:34:14.741Z,86.86
2022-10-22T23:36:41.830Z,86.80
2022-10-22T23:39:12.343Z,86.02
2022-10-22T23:41:39.687Z,85.94
2022-10-22T23:44:08.138Z,86.15
2022-10-22T23:46:35.582Z,85.74
2022-10-22T23:49:02.563Z,85.00
2022-10-22T23:51:29.555Z,86.27
2022-10-22T23:54:02.572Z,86.33
2022-10-22T23:56:29.607Z,86.22
2022-10-22T23:58:57.522Z,85.60
